sensor_id;sensor_type;location;lat;lon;timestamp;pressure;altitude;pressure_sealevel;temperature;humidity
11114;BME280;5610;52.154;9.198;2022-08-19T00:02:14;100403.72;;;22.41;100.00
11114;BME280;5610;52.154;9.198;2022-08-19T00:05:00;100400.00;;;22.42;100.00
11114;BME280;5610;52.154;9.198;2022-08-19T00:07:45;100406.44;;;22.41;100.00
11114;BME280;5610;52.154;9.198;2022-08-19T00:10:31;100401.88;;;22.41;100.00
11114;BME280;5610;52.154;9.198;2022-08-19T00:13:17;100409.16;;;22.41;100.00
11114;BME280;5610;52.154;9.198;2022-08-19T00:16:05;100412.03;;;22.39;100.00
11114;BME280;5610;52.154;9.198;2022-08-19T00:18:52;100413.91;;;22.39;100.00
11114;BME280;5610;52.154;9.198;2022-08-19T00:21:37;100414.09;;;22.37;100.00
11114;BME280;5610;52.154;9.198;2022-08-19T00:24:24;100413.25;;;22.37;100.00
11114;BME280;5610;52.154;9.198;2022-08-19T00:27:09;100408.84;;;22.36;100.00
11114;BME280;5610;52.154;9.198;2022-08-19T00:29:54;100415.31;;;22.35;100.00
11114;BME280;5610;52.154;9.198;2022-08-19T00:32:40;100411.56;;;22.36;100.00
11114;BME280;5610;52.154;9.198;2022-08-19T00:35:26;100411.75;;;22.34;100.00
11114;BME280;5610;52.154;9.198;2022-08-19T00:38:12;100412.75;;;22.33;100.00
11114;BME280;5610;52.154;9.198;2022-08-19T00:40:57;100407.69;;;22.30;100.00
11114;BME280;5610;52.154;9.198;2022-08-19T00:43:42;100405.16;;;22.29;100.00
11114;BME280;5610;52.154;9.198;2022-08-19T00:46:29;100402.63;;;22.27;100.00
11114;BME280;5610;52.154;9.198;2022-08-19T00:49:18;100403.63;;;22.26;100.00
11114;BME280;5610;52.154;9.198;2022-08-19T00:52:09;100389.19;;;22.26;100.00
11114;BME280;5610;52.154;9.198;2022-08-19T00:54:58;100387.69;;;22.23;100.00
11114;BME280;5610;52.154;9.198;2022-08-19T00:57:46;100377.88;;;22.22;100.00
11114;BME280;5610;52.154;9.198;2022-08-19T01:00:34;100370.56;;;22.23;100.00
11114;BME280;5610;52.154;9.198;2022-08-19T01:03:21;100358.03;;;22.22;100.00
11114;BME280;5610;52.154;9.198;2022-08-19T01:06:08;100351.91;;;22.19;100.00
11114;BME280;5610;52.154;9.198;2022-08-19T01:08:53;100352.09;;;22.18;100.00
11114;BME280;5610;52.154;9.198;2022-08-19T01:11:41;100357.88;;;22.15;100.00
11114;BME280;5610;52.154;9.198;2022-08-19T01:14:29;100359.06;;;22.12;100.00
11114;BME280;5610;52.154;9.198;2022-08-19T01:17:14;100354.66;;;22.11;100.00
11114;BME280;5610;52.154;9.198;2022-08-19T01:20:01;100351.28;;;22.09;100.00
11114;BME280;5610;52.154;9.198;2022-08-19T01:22:51;100347.03;;;22.07;100.00
11114;BME280;5610;52.154;9.198;2022-08-19T01:25:42;100341.94;;;22.04;100.00
11114;BME280;5610;52.154;9.198;2022-08-19T01:28:28;100337.72;;;22.01;100.00
11114;BME280;5610;52.154;9.198;2022-08-19T01:31:17;100349.75;;;21.99;100.00
11114;BME280;5610;52.154;9.198;2022-08-19T01:34:03;100347.41;;;21.96;100.00
11114;BME280;5610;52.154;9.198;2022-08-19T01:36:49;100352.50;;;21.90;100.00
11114;BME280;5610;52.154;9.198;2022-08-19T01:39:35;100351.69;;;21.82;100.00
11114;BME280;5610;52.154;9.198;2022-08-19T01:42:21;100345.94;;;21.77;100.00
11114;BME280;5610;52.154;9.198;2022-08-19T01:45:07;100334.09;;;21.70;100.00
11114;BME280;5610;52.154;9.198;2022-08-19T01:47:53;100332.25;;;21.62;100.00
11114;BME280;5610;52.154;9.198;2022-08-19T01:50:38;100330.41;;;21.54;100.00
11114;BME280;5610;52.154;9.198;2022-08-19T01:53:24;100329.41;;;21.47;100.00
11114;BME280;5610;52.154;9.198;2022-08-19T01:56:11;100332.81;;;21.41;100.00
11114;BME280;5610;52.154;9.198;2022-08-19T01:59:00;100324.19;;;21.37;100.00
11114;BME280;5610;52.154;9.198;2022-08-19T02:01:46;100325.22;;;21.36;100.00
11114;BME280;5610;52.154;9.198;2022-08-19T02:04:32;100326.38;;;21.34;100.00
11114;BME280;5610;52.154;9.198;2022-08-19T02:07:19;100346.88;;;21.28;100.00
11114;BME280;5610;52.154;9.198;2022-08-19T02:10:07;100350.47;;;21.29;100.00
11114;BME280;5610;52.154;9.198;2022-08-19T02:12:54;100348.22;;;21.24;100.00
11114;BME280;5610;52.154;9.198;2022-08-19T02:15:39;100328.59;;;21.22;100.00
11114;BME280;5610;52.154;9.198;2022-08-19T02:18:25;100337.03;;;21.19;100.00
11114;BME280;5610;52.154;9.198;2022-08-19T02:21:11;100330.09;;;21.17;100.00
11114;BME280;5610;52.154;9.198;2022-08-19T02:23:57;100327.72;;;21.13;100.00
11114;BME280;5610;52.154;9.198;2022-08-19T02:26:42;100328.06;;;21.10;100.00
11114;BME280;5610;52.154;9.198;2022-08-19T02:29:29;100321.81;;;21.10;100.00
11114;BME280;5610;52.154;9.198;2022-08-19T02:32:14;100317.41;;;21.09;100.00
11114;BME280;5610;52.154;9.198;2022-08-19T02:35:00;100306.75;;;21.07;100.00
11114;BME280;5610;52.154;9.198;2022-08-19T02:37:45;100308.75;;;21.05;100.00
11114;BME280;5610;52.154;9.198;2022-08-19T02:40:49;100308.44;;;21.00;100.00
11114;BME280;5610;52.154;9.198;2022-08-19T02:43:37;100304.88;;;21.00;100.00
11114;BME280;5610;52.154;9.198;2022-08-19T02:46:28;100301.50;;;20.98;100.00
11114;BME280;5610;52.154;9.198;2022-08-19T02:49:14;100306.06;;;20.97;100.00
11114;BME280;5610;52.154;9.198;2022-08-19T02:51:59;100305.88;;;20.99;100.00
11114;BME280;5610;52.154;9.198;2022-08-19T02:54:45;100305.75;;;21.00;100.00
11114;BME280;5610;52.154;9.198;2022-08-19T02:57:30;100310.63;;;20.97;100.00
11114;BME280;5610;52.154;9.198;2022-08-19T03:00:16;100308.41;;;20.92;100.00
11114;BME280;5610;52.154;9.198;2022-08-19T03:03:04;100313.34;;;20.89;100.00
11114;BME280;5610;52.154;9.198;2022-08-19T03:05:49;100316.22;;;20.87;100.00
11114;BME280;5610;52.154;9.198;2022-08-19T03:08:35;100314.03;;;20.82;100.00
11114;BME280;5610;52.154;9.198;2022-08-19T03:11:25;100306.06;;;20.81;100.00
11114;BME280;5610;52.154;9.198;2022-08-19T03:14:11;100314.03;;;20.74;100.00
11114;BME280;5610;52.154;9.198;2022-08-19T03:16:56;100323.84;;;20.75;100.00
11114;BME280;5610;52.154;9.198;2022-08-19T03:19:43;100334.84;;;20.74;100.00
11114;BME280;5610;52.154;9.198;2022-08-19T03:22:28;100339.06;;;20.68;100.00
11114;BME280;5610;52.154;9.198;2022-08-19T03:25:14;100321.59;;;20.63;100.00
11114;BME280;5610;52.154;9.198;2022-08-19T03:27:59;100326.66;;;20.57;100.00
11114;BME280;5610;52.154;9.198;2022-08-19T03:30:55;100327.19;;;20.53;100.00
11114;BME280;5610;52.154;9.198;2022-08-19T03:33:42;100329.38;;;20.49;100.00
11114;BME280;5610;52.154;9.198;2022-08-19T03:36:29;100338.00;;;20.45;100.00
11114;BME280;5610;52.154;9.198;2022-08-19T03:39:15;100330.34;;;20.40;100.00
11114;BME280;5610;52.154;9.198;2022-08-19T03:42:00;100334.03;;;20.31;100.00
11114;BME280;5610;52.154;9.198;2022-08-19T03:44:46;100347.38;;;20.24;100.00
11114;BME280;5610;52.154;9.198;2022-08-19T03:47:31;100343.47;;;20.19;100.00
11114;BME280;5610;52.154;9.198;2022-08-19T03:50:18;100336.69;;;20.15;100.00
11114;BME280;5610;52.154;9.198;2022-08-19T03:53:04;100339.91;;;20.10;100.00
11114;BME280;5610;52.154;9.198;2022-08-19T03:55:50;100337.34;;;20.09;100.00
11114;BME280;5610;52.154;9.198;2022-08-19T03:58:35;100336.81;;;20.05;100.00
11114;BME280;5610;52.154;9.198;2022-08-19T04:01:23;100334.75;;;19.99;100.00
11114;BME280;5610;52.154;9.198;2022-08-19T04:04:10;100342.84;;;19.91;100.00
11114;BME280;5610;52.154;9.198;2022-08-19T04:06:56;100341.31;;;19.88;100.00
11114;BME280;5610;52.154;9.198;2022-08-19T04:09:43;100333.69;;;19.84;100.00
11114;BME280;5610;52.154;9.198;2022-08-19T04:12:28;100345.34;;;19.84;100.00
11114;BME280;5610;52.154;9.198;2022-08-19T04:15:14;100347.53;;;19.81;100.00
11114;BME280;5610;52.154;9.198;2022-08-19T04:18:00;100344.28;;;19.77;100.00
11114;BME280;5610;52.154;9.198;2022-08-19T04:20:46;100347.16;;;19.75;100.00
11114;BME280;5610;52.154;9.198;2022-08-19T04:23:33;100350.34;;;19.71;100.00
11114;BME280;5610;52.154;9.198;2022-08-19T04:26:23;100355.75;;;19.71;100.00
11114;BME280;5610;52.154;9.198;2022-08-19T04:29:12;100353.22;;;19.69;100.00
11114;BME280;5610;52.154;9.198;2022-08-19T04:31:58;100354.91;;;19.70;100.00
11114;BME280;5610;52.154;9.198;2022-08-19T04:34:44;100361.16;;;19.71;100.00
11114;BME280;5610;52.154;9.198;2022-08-19T04:37:29;100357.44;;;19.72;100.00
11114;BME280;5610;52.154;9.198;2022-08-19T04:40:16;100366.38;;;19.72;100.00
11114;BME280;5610;52.154;9.198;2022-08-19T04:43:20;100375.03;;;19.76;100.00
11114;BME280;5610;52.154;9.198;2022-08-19T04:46:06;100372.19;;;19.78;100.00
11114;BME280;5610;52.154;9.198;2022-08-19T04:48:51;100374.72;;;19.79;100.00
11114;BME280;5610;52.154;9.198;2022-08-19T04:51:40;100379.09;;;19.80;100.00
11114;BME280;5610;52.154;9.198;2022-08-19T04:54:26;100372.72;;;19.81;100.00
11114;BME280;5610;52.154;9.198;2022-08-19T04:57:11;100373.41;;;19.83;100.00
11114;BME280;5610;52.154;9.198;2022-08-19T04:59:58;100377.78;;;19.84;100.00
11114;BME280;5610;52.154;9.198;2022-08-19T05:02:43;100376.94;;;19.84;100.00
11114;BME280;5610;52.154;9.198;2022-08-19T05:05:29;100372.38;;;19.84;100.00
11114;BME280;5610;52.154;9.198;2022-08-19T05:08:19;100374.91;;;19.86;100.00
11114;BME280;5610;52.154;9.198;2022-08-19T05:11:08;100371.19;;;19.87;100.00
11114;BME280;5610;52.154;9.198;2022-08-19T05:13:55;100370.72;;;19.91;100.00
11114;BME280;5610;52.154;9.198;2022-08-19T05:16:42;100367.69;;;19.94;100.00
11114;BME280;5610;52.154;9.198;2022-08-19T05:19:28;100374.19;;;20.01;100.00
11114;BME280;5610;52.154;9.198;2022-08-19T05:22:36;100383.47;;;20.07;100.00
11114;BME280;5610;52.154;9.198;2022-08-19T05:25:22;100378.41;;;20.04;100.00
11114;BME280;5610;52.154;9.198;2022-08-19T05:28:09;100382.47;;;20.08;100.00
11114;BME280;5610;52.154;9.198;2022-08-19T05:30:55;100386.03;;;20.09;100.00
11114;BME280;5610;52.154;9.198;2022-08-19T05:33:41;100388.59;;;20.10;100.00
11114;BME280;5610;52.154;9.198;2022-08-19T05:36:28;100389.25;;;20.12;100.00
11114;BME280;5610;52.154;9.198;2022-08-19T05:39:16;100379.97;;;20.15;100.00
11114;BME280;5610;52.154;9.198;2022-08-19T05:42:04;100370.69;;;20.17;100.00
11114;BME280;5610;52.154;9.198;2022-08-19T05:44:50;100373.41;;;20.17;100.00
11114;BME280;5610;52.154;9.198;2022-08-19T05:47:35;100364.09;;;20.20;100.00
11114;BME280;5610;52.154;9.198;2022-08-19T05:50:22;100367.84;;;20.27;100.00
11114;BME280;5610;52.154;9.198;2022-08-19T05:53:08;100374.13;;;20.36;100.00
11114;BME280;5610;52.154;9.198;2022-08-19T05:55:53;100375.06;;;20.44;100.00
11114;BME280;5610;52.154;9.198;2022-08-19T05:58:39;100374.22;;;20.52;100.00
11114;BME280;5610;52.154;9.198;2022-08-19T06:01:25;100365.59;;;20.65;100.00
11114;BME280;5610;52.154;9.198;2022-08-19T06:04:11;100359.03;;;20.75;100.00
11114;BME280;5610;52.154;9.198;2022-08-19T06:06:58;100367.00;;;20.85;100.00
11114;BME280;5610;52.154;9.198;2022-08-19T06:09:45;100368.84;;;20.84;100.00
11114;BME280;5610;52.154;9.198;2022-08-19T06:12:33;100363.44;;;20.93;100.00
11114;BME280;5610;52.154;9.198;2022-08-19T06:15:19;100367.69;;;21.03;100.00
11114;BME280;5610;52.154;9.198;2022-08-19T06:18:10;100371.06;;;21.05;100.00
11114;BME280;5610;52.154;9.198;2022-08-19T06:20:55;100369.72;;;21.09;100.00
11114;BME280;5610;52.154;9.198;2022-08-19T06:23:45;100376.84;;;21.19;100.00
11114;BME280;5610;52.154;9.198;2022-08-19T06:26:32;100384.97;;;21.19;100.00
11114;BME280;5610;52.154;9.198;2022-08-19T06:29:20;100383.81;;;21.29;100.00
11114;BME280;5610;52.154;9.198;2022-08-19T06:32:05;100380.94;;;21.39;100.00
11114;BME280;5610;52.154;9.198;2022-08-19T06:34:51;100367.34;;;21.47;100.00
11114;BME280;5610;52.154;9.198;2022-08-19T06:37:36;100373.28;;;21.34;100.00
11114;BME280;5610;52.154;9.198;2022-08-19T06:40:23;100371.78;;;21.40;100.00
11114;BME280;5610;52.154;9.198;2022-08-19T06:43:11;100373.63;;;21.48;100.00
11114;BME280;5610;52.154;9.198;2022-08-19T06:45:56;100381.44;;;21.51;100.00
11114;BME280;5610;52.154;9.198;2022-08-19T06:48:43;100380.91;;;21.55;100.00
11114;BME280;5610;52.154;9.198;2022-08-19T06:51:28;100383.59;;;21.55;100.00
11114;BME280;5610;52.154;9.198;2022-08-19T06:54:16;100383.47;;;21.57;100.00
11114;BME280;5610;52.154;9.198;2022-08-19T06:57:03;100396.84;;;21.50;100.00
11114;BME280;5610;52.154;9.198;2022-08-19T06:59:48;100400.72;;;21.48;100.00
11114;BME280;5610;52.154;9.198;2022-08-19T07:02:34;100404.63;;;21.61;100.00
11114;BME280;5610;52.154;9.198;2022-08-19T07:05:21;100396.31;;;21.71;100.00
11114;BME280;5610;52.154;9.198;2022-08-19T07:08:06;100396.47;;;21.78;100.00
11114;BME280;5610;52.154;9.198;2022-08-19T07:10:53;100399.47;;;21.83;100.00
11114;BME280;5610;52.154;9.198;2022-08-19T07:13:40;100406.09;;;21.88;100.00
11114;BME280;5610;52.154;9.198;2022-08-19T07:16:27;100416.91;;;21.97;100.00
11114;BME280;5610;52.154;9.198;2022-08-19T07:19:13;100422.84;;;22.08;100.00
11114;BME280;5610;52.154;9.198;2022-08-19T07:21:58;100410.94;;;22.17;100.00
11114;BME280;5610;52.154;9.198;2022-08-19T07:24:46;100417.50;;;22.31;100.00
11114;BME280;5610;52.154;9.198;2022-08-19T07:27:31;100421.34;;;22.45;100.00
11114;BME280;5610;52.154;9.198;2022-08-19T07:30:17;100433.16;;;22.60;100.00
11114;BME280;5610;52.154;9.198;2022-08-19T07:33:03;100437.00;;;22.74;100.00
11114;BME280;5610;52.154;9.198;2022-08-19T07:35:48;100449.50;;;22.91;100.00
11114;BME280;5610;52.154;9.198;2022-08-19T07:38:34;100460.84;;;22.95;100.00
11114;BME280;5610;52.154;9.198;2022-08-19T07:41:20;100476.03;;;23.12;100.00
11114;BME280;5610;52.154;9.198;2022-08-19T07:44:07;100481.16;;;23.30;100.00
11114;BME280;5610;52.154;9.198;2022-08-19T07:46:56;100481.91;;;23.47;100.00
11114;BME280;5610;52.154;9.198;2022-08-19T07:49:46;100480.94;;;23.63;100.00
11114;BME280;5610;52.154;9.198;2022-08-19T07:52:32;100487.47;;;23.76;100.00
11114;BME280;5610;52.154;9.198;2022-08-19T07:55:23;100477.75;;;23.97;100.00
11114;BME280;5610;52.154;9.198;2022-08-19T07:58:10;100468.91;;;24.09;100.00
11114;BME280;5610;52.154;9.198;2022-08-19T08:00:55;100472.88;;;24.22;100.00
11114;BME280;5610;52.154;9.198;2022-08-19T08:03:42;100470.63;;;24.25;100.00
11114;BME280;5610;52.154;9.198;2022-08-19T08:06:46;100471.56;;;24.32;99.72
11114;BME280;5610;52.154;9.198;2022-08-19T08:09:49;100479.59;;;24.34;100.00
11114;BME280;5610;52.154;9.198;2022-08-19T08:12:38;100485.88;;;24.34;99.66
11114;BME280;5610;52.154;9.198;2022-08-19T08:15:25;100488.56;;;24.20;97.72
11114;BME280;5610;52.154;9.198;2022-08-19T08:18:11;100500.75;;;24.09;100.00
11114;BME280;5610;52.154;9.198;2022-08-19T08:20:58;100499.19;;;24.44;97.30
11114;BME280;5610;52.154;9.198;2022-08-19T08:23:43;100503.03;;;24.79;97.36
11114;BME280;5610;52.154;9.198;2022-08-19T08:26:29;100491.06;;;25.10;93.36
11114;BME280;5610;52.154;9.198;2022-08-19T08:29:14;100492.84;;;25.39;90.96
11114;BME280;5610;52.154;9.198;2022-08-19T08:32:00;100496.66;;;25.66;86.86
11114;BME280;5610;52.154;9.198;2022-08-19T08:34:45;100500.56;;;25.78;85.97
11114;BME280;5610;52.154;9.198;2022-08-19T08:37:31;100497.31;;;25.89;85.56
11114;BME280;5610;52.154;9.198;2022-08-19T08:40:20;100491.22;;;26.15;83.87
11114;BME280;5610;52.154;9.198;2022-08-19T08:43:20;100493.16;;;26.56;80.31
11114;BME280;5610;52.154;9.198;2022-08-19T08:46:09;100506.88;;;27.17;78.07
11114;BME280;5610;52.154;9.198;2022-08-19T08:49:01;100494.34;;;27.49;74.20
11114;BME280;5610;52.154;9.198;2022-08-19T08:51:51;100495.38;;;27.48;73.34
11114;BME280;5610;52.154;9.198;2022-08-19T08:54:42;100490.75;;;27.55;73.68
11114;BME280;5610;52.154;9.198;2022-08-19T08:57:33;100487.16;;;27.61;72.87
11114;BME280;5610;52.154;9.198;2022-08-19T09:00:24;100488.28;;;27.80;69.60
11114;BME280;5610;52.154;9.198;2022-08-19T09:03:17;100489.09;;;28.21;69.59
11114;BME280;5610;52.154;9.198;2022-08-19T09:06:07;100500.47;;;28.37;67.10
11114;BME280;5610;52.154;9.198;2022-08-19T09:08:59;100498.97;;;29.06;62.62
11114;BME280;5610;52.154;9.198;2022-08-19T09:11:56;100481.97;;;29.61;59.54
11114;BME280;5610;52.154;9.198;2022-08-19T09:14:48;100487.16;;;29.75;60.54
11114;BME280;5610;52.154;9.198;2022-08-19T09:17:35;100472.22;;;30.15;57.65
11114;BME280;5610;52.154;9.198;2022-08-19T09:20:23;100485.50;;;29.93;57.08
11114;BME280;5610;52.154;9.198;2022-08-19T09:23:09;100479.34;;;30.41;56.52
11114;BME280;5610;52.154;9.198;2022-08-19T09:25:55;100485.22;;;30.99;54.51
11114;BME280;5610;52.154;9.198;2022-08-19T09:28:43;100481.03;;;31.27;51.94
11114;BME280;5610;52.154;9.198;2022-08-19T09:31:29;100480.41;;;31.55;51.89
11114;BME280;5610;52.154;9.198;2022-08-19T09:34:16;100477.28;;;31.63;49.96
11114;BME280;5610;52.154;9.198;2022-08-19T09:37:03;100478.66;;;31.72;49.21
11114;BME280;5610;52.154;9.198;2022-08-19T09:39:49;100477.97;;;31.88;50.05
11114;BME280;5610;52.154;9.198;2022-08-19T09:42:34;100484.81;;;31.86;50.41
11114;BME280;5610;52.154;9.198;2022-08-19T09:45:21;100487.09;;;32.01;49.60
11114;BME280;5610;52.154;9.198;2022-08-19T09:48:06;100482.47;;;31.59;50.44
11114;BME280;5610;52.154;9.198;2022-08-19T09:50:51;100476.66;;;31.79;47.96
11114;BME280;5610;52.154;9.198;2022-08-19T09:53:38;100478.56;;;31.90;47.22
11114;BME280;5610;52.154;9.198;2022-08-19T09:56:26;100498.84;;;32.08;46.78
11114;BME280;5610;52.154;9.198;2022-08-19T09:59:11;100483.59;;;32.52;46.11
11114;BME280;5610;52.154;9.198;2022-08-19T10:01:58;100483.34;;;33.05;46.15
11114;BME280;5610;52.154;9.198;2022-08-19T10:04:43;100471.22;;;33.06;44.81
11114;BME280;5610;52.154;9.198;2022-08-19T10:07:46;100474.84;;;33.24;43.88
11114;BME280;5610;52.154;9.198;2022-08-19T10:10:34;100473.00;;;33.58;43.06
11114;BME280;5610;52.154;9.198;2022-08-19T10:13:22;100474.44;;;33.94;42.03
11114;BME280;5610;52.154;9.198;2022-08-19T10:16:11;100469.09;;;34.43;41.60
11114;BME280;5610;52.154;9.198;2022-08-19T10:18:58;100470.72;;;34.83;39.79
11114;BME280;5610;52.154;9.198;2022-08-19T10:21:44;100482.16;;;35.67;38.83
11114;BME280;5610;52.154;9.198;2022-08-19T10:24:29;100477.88;;;35.87;37.32
11114;BME280;5610;52.154;9.198;2022-08-19T10:27:15;100471.69;;;36.54;36.81
11114;BME280;5610;52.154;9.198;2022-08-19T10:30:02;100480.78;;;37.02;37.22
11114;BME280;5610;52.154;9.198;2022-08-19T10:32:49;100464.97;;;37.28;36.89
11114;BME280;5610;52.154;9.198;2022-08-19T10:35:35;100469.41;;;37.08;36.52
11114;BME280;5610;52.154;9.198;2022-08-19T10:38:20;100459.47;;;36.55;37.29
11114;BME280;5610;52.154;9.198;2022-08-19T10:41:08;100462.22;;;36.50;37.39
11114;BME280;5610;52.154;9.198;2022-08-19T10:43:54;100445.28;;;36.46;36.76
11114;BME280;5610;52.154;9.198;2022-08-19T10:46:41;100439.69;;;37.09;36.37
11114;BME280;5610;52.154;9.198;2022-08-19T10:49:30;100429.06;;;38.43;35.46
11114;BME280;5610;52.154;9.198;2022-08-19T10:52:38;100430.28;;;40.66;32.34
11114;BME280;5610;52.154;9.198;2022-08-19T10:55:23;100415.78;;;42.73;29.18
11114;BME280;5610;52.154;9.198;2022-08-19T10:58:27;100412.34;;;44.59;27.46
11114;BME280;5610;52.154;9.198;2022-08-19T11:01:14;100414.91;;;46.03;25.63
11114;BME280;5610;52.154;9.198;2022-08-19T11:04:01;100403.59;;;47.13;25.22
11114;BME280;5610;52.154;9.198;2022-08-19T11:06:48;100403.00;;;48.31;23.14
11114;BME280;5610;52.154;9.198;2022-08-19T11:09:38;100397.78;;;48.57;23.22
11114;BME280;5610;52.154;9.198;2022-08-19T11:12:25;100401.63;;;49.45;22.86
11114;BME280;5610;52.154;9.198;2022-08-19T11:15:11;100404.56;;;49.65;22.19
11114;BME280;5610;52.154;9.198;2022-08-19T11:17:56;100386.72;;;49.92;22.72
11114;BME280;5610;52.154;9.198;2022-08-19T11:20:42;100396.34;;;50.54;21.82
11114;BME280;5610;52.154;9.198;2022-08-19T11:23:27;100385.19;;;50.81;21.22
11114;BME280;5610;52.154;9.198;2022-08-19T11:26:14;100380.50;;;51.73;20.94
11114;BME280;5610;52.154;9.198;2022-08-19T11:29:00;100376.41;;;51.94;20.57
11114;BME280;5610;52.154;9.198;2022-08-19T11:31:47;100368.75;;;52.21;19.82
11114;BME280;5610;52.154;9.198;2022-08-19T11:34:32;100373.84;;;52.64;19.89
11114;BME280;5610;52.154;9.198;2022-08-19T11:37:18;100367.72;;;53.22;20.05
11114;BME280;5610;52.154;9.198;2022-08-19T11:40:05;100368.53;;;53.64;19.47
11114;BME280;5610;52.154;9.198;2022-08-19T11:42:52;100363.78;;;53.38;18.89
11114;BME280;5610;52.154;9.198;2022-08-19T11:45:40;100366.25;;;53.06;19.28
11114;BME280;5610;52.154;9.198;2022-08-19T11:48:26;100369.19;;;53.46;18.56
11114;BME280;5610;52.154;9.198;2022-08-19T11:51:14;100366.13;;;53.69;18.38
11114;BME280;5610;52.154;9.198;2022-08-19T11:54:00;100371.41;;;53.67;19.25
11114;BME280;5610;52.154;9.198;2022-08-19T11:56:45;100358.78;;;53.65;18.36
11114;BME280;5610;52.154;9.198;2022-08-19T11:59:34;100362.53;;;53.76;18.82
11114;BME280;5610;52.154;9.198;2022-08-19T12:02:19;100358.28;;;54.03;18.25
11114;BME280;5610;52.154;9.198;2022-08-19T12:05:06;100356.00;;;54.23;18.33
11114;BME280;5610;52.154;9.198;2022-08-19T12:07:51;100356.88;;;53.39;18.42
11114;BME280;5610;52.154;9.198;2022-08-19T12:10:38;100357.06;;;54.01;18.86
11114;BME280;5610;52.154;9.198;2022-08-19T12:13:25;100362.97;;;54.29;18.25
11114;BME280;5610;52.154;9.198;2022-08-19T12:16:13;100348.00;;;53.88;17.95
11114;BME280;5610;52.154;9.198;2022-08-19T12:18:59;100337.75;;;54.39;18.36
11114;BME280;5610;52.154;9.198;2022-08-19T12:21:48;100341.97;;;54.66;17.73
11114;BME280;5610;52.154;9.198;2022-08-19T12:24:33;100339.81;;;53.83;17.90
11114;BME280;5610;52.154;9.198;2022-08-19T12:27:19;100337.88;;;54.56;18.29
11114;BME280;5610;52.154;9.198;2022-08-19T12:30:06;100326.66;;;55.10;17.81
11114;BME280;5610;52.154;9.198;2022-08-19T12:32:54;100324.97;;;54.84;18.62
11114;BME280;5610;52.154;9.198;2022-08-19T12:35:40;100316.81;;;54.86;17.73
11114;BME280;5610;52.154;9.198;2022-08-19T12:38:25;100314.47;;;55.38;17.69
11114;BME280;5610;52.154;9.198;2022-08-19T12:41:14;100317.75;;;55.47;16.82
11114;BME280;5610;52.154;9.198;2022-08-19T12:44:02;100301.28;;;54.80;18.00
11114;BME280;5610;52.154;9.198;2022-08-19T12:46:47;100299.19;;;54.66;17.57
11114;BME280;5610;52.154;9.198;2022-08-19T12:49:36;100297.31;;;55.24;18.10
11114;BME280;5610;52.154;9.198;2022-08-19T12:52:24;100303.88;;;55.85;17.83
11114;BME280;5610;52.154;9.198;2022-08-19T12:55:10;100302.25;;;55.45;17.48
11114;BME280;5610;52.154;9.198;2022-08-19T12:57:56;100305.50;;;55.47;16.92
11114;BME280;5610;52.154;9.198;2022-08-19T13:00:41;100312.78;;;56.26;16.82
11114;BME280;5610;52.154;9.198;2022-08-19T13:03:26;100310.69;;;56.48;16.95
11114;BME280;5610;52.154;9.198;2022-08-19T13:06:15;100310.25;;;56.46;17.01
11114;BME280;5610;52.154;9.198;2022-08-19T13:09:00;100304.59;;;56.25;16.67
11114;BME280;5610;52.154;9.198;2022-08-19T13:11:45;100299.28;;;56.30;17.42
11114;BME280;5610;52.154;9.198;2022-08-19T13:14:30;100294.81;;;56.26;17.15
11114;BME280;5610;52.154;9.198;2022-08-19T13:17:16;100287.88;;;56.16;17.18
11114;BME280;5610;52.154;9.198;2022-08-19T13:20:02;100294.16;;;56.84;16.81
11114;BME280;5610;52.154;9.198;2022-08-19T13:22:49;100289.50;;;57.08;17.08
11114;BME280;5610;52.154;9.198;2022-08-19T13:25:35;100300.72;;;56.78;16.51
11114;BME280;5610;52.154;9.198;2022-08-19T13:28:21;100296.34;;;56.55;15.78
11114;BME280;5610;52.154;9.198;2022-08-19T13:31:06;100298.28;;;56.76;16.30
11114;BME280;5610;52.154;9.198;2022-08-19T13:34:09;100290.59;;;56.62;16.48
11114;BME280;5610;52.154;9.198;2022-08-19T13:36:54;100294.38;;;56.24;16.46
11114;BME280;5610;52.154;9.198;2022-08-19T13:39:41;100284.13;;;56.48;15.99
11114;BME280;5610;52.154;9.198;2022-08-19T13:42:26;100290.13;;;57.37;15.74
11114;BME280;5610;52.154;9.198;2022-08-19T13:45:15;100279.81;;;56.91;15.74
11114;BME280;5610;52.154;9.198;2022-08-19T13:48:06;100286.91;;;57.32;15.86
11114;BME280;5610;52.154;9.198;2022-08-19T13:50:52;100282.53;;;57.13;15.40
11114;BME280;5610;52.154;9.198;2022-08-19T13:53:38;100276.88;;;57.02;15.58
11114;BME280;5610;52.154;9.198;2022-08-19T13:56:27;100280.75;;;56.70;15.94
11114;BME280;5610;52.154;9.198;2022-08-19T13:59:13;100288.84;;;56.79;15.83
11114;BME280;5610;52.154;9.198;2022-08-19T14:01:58;100278.94;;;56.00;16.42
11114;BME280;5610;52.154;9.198;2022-08-19T14:04:46;100277.69;;;56.08;16.50
11114;BME280;5610;52.154;9.198;2022-08-19T14:07:31;100288.75;;;56.06;16.23
11114;BME280;5610;52.154;9.198;2022-08-19T14:10:17;100287.16;;;55.62;16.71
11114;BME280;5610;52.154;9.198;2022-08-19T14:13:04;100291.63;;;55.34;16.35
11114;BME280;5610;52.154;9.198;2022-08-19T14:15:50;100281.72;;;54.82;16.89
11114;BME280;5610;52.154;9.198;2022-08-19T14:18:36;100281.97;;;54.41;17.20
11114;BME280;5610;52.154;9.198;2022-08-19T14:21:22;100277.41;;;53.71;17.47
11114;BME280;5610;52.154;9.198;2022-08-19T14:24:09;100279.22;;;53.05;17.40
11114;BME280;5610;52.154;9.198;2022-08-19T14:26:54;100285.28;;;53.00;17.67
11114;BME280;5610;52.154;9.198;2022-08-19T14:29:41;100279.41;;;52.82;17.57
11114;BME280;5610;52.154;9.198;2022-08-19T14:32:26;100275.38;;;52.23;18.32
11114;BME280;5610;52.154;9.198;2022-08-19T14:35:14;100278.38;;;51.80;18.13
11114;BME280;5610;52.154;9.198;2022-08-19T14:38:00;100272.91;;;50.25;19.04
11114;BME280;5610;52.154;9.198;2022-08-19T14:40:46;100279.47;;;46.79;21.73